Beckley, WV (25801)

10:23 AM EDT on October 22, 2014 (GMT -0400)
Southeast Beckley | Change Station
CLOSE
Current Station
Personal Weather Station
Location: Beckley, WV
Elevation: 720 m
Nearby Weather Stations

Elev 720 m 37.76 °N, 81.16 °W | Updated 8 seconds ago

Fog
Fog
5.5 °C
Feels Like 4 °C
N
5.6
Wind Variable Wind from NNW
Gusts 5.6 km/h

Today
High -- | Low -- °C
--% Chance of Precip.
Yesterday
High -- | Low -- °C
Precip. -- mm
7:40 AM 6:38 PM
Waning Crescent, 2% visible
Pressure 1022 hPa
Visibility 4.0 kilometers
Clouds Overcast 60 m
Windchill 4 °C
Dew Point 5 °C
Humidity 97%
Rainfall 0 mm
Snow Depth Not available.
UV 1 out of 12
Pollen .30 out of 12
Air Quality Not available.
Flu Activity Sporadic
METAR KBKW 221351Z AUTO 33010KT 2 1/2SM BR OVC002 06/04 A3014 RMK AO2 RAE21 SLP215 P0000 T00560039 TSNO

More Conditions Fewer Conditions

Pressure 1022 hPa
Visibility 4.0 kilometers
Clouds Overcast 60 m
Windchill 4 °C
Dew Point 5 °C
Humidity 97%
Rainfall 0 mm
Snow Depth Not available.
UV 1 out of 12
Pollen .30 out of 12
Air Quality Not available.
Flu Activity Sporadic
METAR KBKW 221351Z AUTO 33010KT 2 1/2SM BR OVC002 06/04 A3014 RMK AO2 RAE21 SLP215 P0000 T00560039 TSNO

More Conditions Fewer Conditions

10-Day Weather Forecast

Almanac

Astronomy

Oct. 22, 2014 Rise Set
Actual Time 7:40 AM EDT 6:38 PM EDT
Civil Twilight 7:13 AM EDT 7:04 PM EDT
Nautical Twilight 6:42 AM EDT 7:35 PM EDT
Astronomical Twilight 6:12 AM EDT 8:05 PM EDT
Moon 6:21 AM EDT 6:02 PM EDT
Length of Visible Light 11h 51m
Length of Day
10h 57m
Tomorrow will be 2m 16s shorter.
Waning Crescent, 2% of the Moon is Illuminated
Today
Waning Crescent
Oct 23
New
Oct 30
First Quarter
Nov 6
Full
Nov 14
Last Quarter

Today's Extremes

State Highs State Lows

Community

WunderPhotos

Upload Photos

1,763,927 photos uploaded!

WunderBlogs® & News

Nearby

Snow Depth

Station Depth Elevation
No new snow has been reported.

Earthquake Activity

City Distance Mag. Time & Date
No recent earthquake activity has been reported nearby.
Minimum magnitude displayed is 2.5.

Coastal Water Temperatures

Place Temperature
No Stations Reporting

Nearby Weather Stations